Time;durP1;ratioP1;P1;durP2;ratioP2;P2;SDS_P1;SDS_P2;PMS_P1;PMS_P2;Temp;Humidity;BMP_temperature;BMP_pressure;BME280_temperature;BME280_humidity;BME280_pressure;Samples;Min_cycle;Max_cycle;Signal;HPM_P1;HPM_P2
2021/08/29 00:03:27;;;;;;;12.18;9.80;;;;;;;;;;10278329;28;20041;-61
2021/08/29 00:08:27;;;;;;;14.65;10.43;;;;;;;;;;10277930;28;20087;-61
2021/08/29 00:13:25;;;;;;;12.35;9.90;;;;;;;;;;10278277;28;20099;-61
2021/08/29 00:18:23;;;;;;;12.93;11.65;;;;;;;;;;10276158;28;20057;-61
2021/08/29 00:23:22;;;;;;;12.27;9.88;;;;;;;;;;10277768;28;20080;-60
2021/08/29 00:28:21;;;;;;;14.43;11.07;;;;;;;;;;10276555;28;20080;-59
2021/08/29 00:33:20;;;;;;;13.50;11.00;;;;;;;;;;10277443;28;20076;-59
2021/08/29 00:38:18;;;;;;;13.32;11.98;;;;;;;;;;10275913;28;20056;-60
2021/08/29 00:43:16;;;;;;;13.45;11.25;;;;;;;;;;10275569;28;20049;-59
2021/08/29 00:48:17;;;;;;;17.52;12.07;;;;;;;;;;10274778;28;20537;-60
2021/08/29 00:53:16;;;;;;;15.48;12.23;;;;;;;;;;10275304;28;20048;-60
2021/08/29 00:58:14;;;;;;;14.30;11.45;;;;;;;;;;10275480;28;20341;-60
2021/08/29 01:03:16;;;;;;;12.52;10.80;;;;;;;;;;10275532;28;20072;-60
2021/08/29 01:08:18;;;;;;;12.70;10.32;;;;;;;;;;10274838;28;20080;-59
2021/08/29 01:13:24;;;;;;;12.43;11.15;;;;;;;;;;10275161;28;20521;-60
2021/08/29 01:18:25;;;;;;;17.25;11.45;;;;;;;;;;10274751;28;20049;-59
2021/08/29 01:23:29;;;;;;;14.50;9.68;;;;;;;;;;10274640;28;20502;-60
2021/08/29 01:28:34;;;;;;;10.68;9.52;;;;;;;;;;10274206;28;20095;-60
2021/08/29 01:33:34;;;;;;;10.65;9.57;;;;;;;;;;10274596;28;20049;-59
2021/08/29 01:38:40;;;;;;;14.40;9.77;;;;;;;;;;10274625;28;20053;-59
2021/08/29 01:43:39;;;;;;;13.85;9.48;;;;;;;;;;10281543;28;20041;-61
2021/08/29 01:48:40;;;;;;;13.10;9.00;;;;;;;;;;10281859;28;20092;-60
2021/08/29 01:53:42;;;;;;;9.65;8.75;;;;;;;;;;10282056;28;20060;-61
2021/08/29 01:58:46;;;;;;;;;;;;;;;;;;10282260;28;20486;-60
2021/08/29 02:03:46;;;;;;;12.40;8.65;;;;;;;;;;10281631;28;19927;-60
2021/08/29 02:08:54;;;;;;;11.20;8.30;;;;;;;;;;10283044;28;20092;-60
2021/08/29 02:13:54;;;;;;;11.80;8.52;;;;;;;;;;10281244;28;20053;-60
2021/08/29 02:18:56;;;;;;;9.90;8.30;;;;;;;;;;10281128;28;20045;-60
2021/08/29 02:23:57;;;;;;;10.45;8.23;;;;;;;;;;10280943;28;20049;-60
2021/08/29 02:28:56;;;;;;;10.88;8.90;;;;;;;;;;10280339;28;20111;-60
2021/08/29 02:33:56;;;;;;;9.25;8.35;;;;;;;;;;10280399;28;20449;-61
2021/08/29 02:38:55;;;;;;;10.02;8.18;;;;;;;;;;10280526;28;20053;-60
2021/08/29 02:43:55;;;;;;;9.73;8.10;;;;;;;;;;10280212;28;20053;-60
2021/08/29 02:48:53;;;;;;;10.52;7.65;;;;;;;;;;10280640;28;20560;-59
2021/08/29 02:53:54;;;;;;;8.50;7.18;;;;;;;;;;10278591;28;20044;-61
2021/08/29 02:58:54;;;;;;;9.95;7.22;;;;;;;;;;10279489;28;20065;-60
2021/08/29 03:03:56;;;;;;;11.75;8.05;;;;;;;;;;10279369;28;20057;-62
2021/08/29 03:08:58;;;;;;;9.38;7.38;;;;;;;;;;10279255;28;20048;-59
2021/08/29 03:13:57;;;;;;;10.23;8.25;;;;;;;;;;10279001;28;20056;-61
2021/08/29 03:18:55;;;;;;;12.32;8.75;;;;;;;;;;10278662;28;20052;-61
2021/08/29 03:24:22;;;;;;;12.65;8.88;;;;;;;;;;10271884;28;20076;-61
2021/08/29 03:29:20;;;;;;;9.55;8.55;;;;;;;;;;10278651;28;20443;-61
2021/08/29 03:34:19;;;;;;;12.10;8.60;;;;;;;;;;10278123;28;20049;-60
2021/08/29 03:39:18;;;;;;;11.30;9.60;;;;;;;;;;10278033;28;20052;-61
2021/08/29 03:44:20;;;;;;;10.40;8.43;;;;;;;;;;10277770;28;20099;-60
2021/08/29 03:49:20;;;;;;;16.98;9.60;;;;;;;;;;10277277;28;20084;-61
2021/08/29 03:54:18;;;;;;;12.38;9.85;;;;;;;;;;10277103;28;20049;-61
2021/08/29 03:59:17;;;;;;;12.57;10.60;;;;;;;;;;10277269;28;20044;-61
2021/08/29 04:04:17;;;;;;;14.13;10.50;;;;;;;;;;10280996;28;20540;-61
2021/08/29 04:09:19;;;;;;;14.27;10.65;;;;;;;;;;10293183;28;20080;-61
2021/08/29 04:14:18;;;;;;;14.70;10.93;;;;;;;;;;10291213;28;20422;-61
2021/08/29 04:19:18;;;;;;;17.15;11.48;;;;;;;;;;10275633;28;20049;-62
2021/08/29 04:24:17;;;;;;;16.25;10.35;;;;;;;;;;10299904;28;20045;-61
2021/08/29 04:29:19;;;;;;;12.90;11.25;;;;;;;;;;10318624;28;20051;-61
2021/08/29 04:34:18;;;;;;;14.57;11.35;;;;;;;;;;10308609;28;20094;-61
2021/08/29 04:39:34;;;;;;;12.95;11.27;;;;;;;;;;10292491;28;20517;-60
2021/08/29 04:44:32;;;;;;;13.60;11.27;;;;;;;;;;10287885;28;20045;-61
2021/08/29 04:49:34;;;;;;;15.38;11.65;;;;;;;;;;10275185;28;20125;-61
2021/08/29 04:54:32;;;;;;;15.32;13.05;;;;;;;;;;10275443;28;20052;-61
2021/08/29 04:59:32;;;;;;;17.08;14.32;;;;;;;;;;10275269;28;20045;-61
2021/08/29 05:04:30;;;;;;;18.80;13.55;;;;;;;;;;10276645;28;20052;-61
2021/08/29 05:09:31;;;;;;;14.02;11.50;;;;;;;;;;10275244;28;20080;-61
2021/08/29 05:14:29;;;;;;;13.57;11.15;;;;;;;;;;10274336;28;20056;-62
2021/08/29 05:19:28;;;;;;;19.38;12.85;;;;;;;;;;10276247;28;20048;-60
2021/08/29 05:24:44;;;;;;;15.68;13.55;;;;;;;;;;10275148;28;20061;-61
2021/08/29 05:29:45;;;;;;;14.15;12.73;;;;;;;;;;10274615;28;20057;-61
2021/08/29 05:34:43;;;;;;;19.13;13.15;;;;;;;;;;10276752;28;20689;-61
2021/08/29 05:39:46;;;;;;;16.38;13.38;;;;;;;;;;10287399;28;20076;-60
2021/08/29 05:44:45;;;;;;;16.48;14.25;;;;;;;;;;10294282;28;20048;-61
2021/08/29 05:49:44;;;;;;;21.63;14.35;;;;;;;;;;10289999;28;20081;-60
2021/08/29 05:54:43;;;;;;;15.88;13.82;;;;;;;;;;10293153;28;20517;-61
2021/08/29 05:59:43;;;;;;;17.08;13.75;;;;;;;;;;10299682;28;20086;-61
2021/08/29 06:04:43;;;;;;;15.38;13.77;;;;;;;;;;10283643;28;20099;-60
2021/08/29 06:09:54;;;;;;;17.08;15.35;;;;;;;;;;10288917;28;20087;-62
2021/08/29 06:14:54;;;;;;;19.35;16.92;;;;;;;;;;10270708;28;20063;-61
2021/08/29 06:19:53;;;;;;;20.48;18.08;;;;;;;;;;10273153;28;20588;-61
2021/08/29 06:24:51;;;;;;;18.05;16.15;;;;;;;;;;10271776;28;20056;-62
2021/08/29 06:30:17;;;;;;;20.83;18.50;;;;;;;;;;10279102;28;20089;-61
2021/08/29 06:35:34;;;;;;;17.38;15.18;;;;;;;;;;10289922;28;20434;-62
2021/08/29 06:40:35;;;;;;;18.17;16.27;;;;;;;;;;10279794;28;20053;-61
2021/08/29 06:45:35;;;;;;;20.58;17.23;;;;;;;;;;10280135;28;20060;-62
2021/08/29 06:50:53;;;;;;;18.75;15.77;;;;;;;;;;10281504;28;20112;-61
2021/08/29 06:56:17;;;;;;;34.00;29.70;;;;;;;;;;10280188;28;20443;-62
2021/08/29 07:01:17;;;;;;;21.67;19.48;;;;;;;;;;10280991;28;20068;-61
2021/08/29 07:06:16;;;;;;;24.58;17.38;;;;;;;;;;10279554;28;20049;-62
2021/08/29 07:11:37;;;;;;;22.70;18.58;;;;;;;;;;10280400;28;20426;-61
2021/08/29 07:16:55;;;;;;;26.25;22.02;;;;;;;;;;10284127;28;20045;-61
2021/08/29 07:21:54;;;;;;;27.17;20.98;;;;;;;;;;10280312;28;20271;-61
2021/08/29 07:27:11;;;;;;;23.45;20.83;;;;;;;;;;10284006;28;20474;-61
2021/08/29 07:32:13;;;;;;;24.83;20.25;;;;;;;;;;10282487;28;20083;-61
2021/08/29 07:37:13;;;;;;;33.17;23.17;;;;;;;;;;10277644;28;20049;-62
2021/08/29 07:42:11;;;;;;;35.65;28.80;;;;;;;;;;10278152;28;20060;-62
2021/08/29 07:47:10;;;;;;;29.55;19.90;;;;;;;;;;10278273;28;20049;-62
2021/08/29 07:52:11;;;;;;;28.08;20.15;;;;;;;;;;10277843;28;20048;-62
2021/08/29 07:57:27;;;;;;;31.70;22.27;;;;;;;;;;10281973;28;20045;-61
2021/08/29 08:02:28;;;;;;;26.88;21.35;;;;;;;;;;10277636;28;20041;-62
2021/08/29 08:08:06;;;;;;;30.48;20.80;;;;;;;;;;10273935;28;20080;-62
2021/08/29 08:13:27;;;;;;;22.52;19.08;;;;;;;;;;10269593;28;20144;-61
2021/08/29 08:18:26;;;;;;;18.75;16.83;;;;;;;;;;10276510;28;20049;-62
2021/08/29 08:23:26;;;;;;;17.40;15.20;;;;;;;;;;10276378;28;20072;-62
2021/08/29 08:28:54;;;;;;;15.25;13.60;;;;;;;;;;10278611;28;20060;-62
2021/08/29 08:34:18;;;;;;;18.67;16.57;;;;;;;;;;10276480;28;20076;-61
2021/08/29 08:39:40;;;;;;;21.55;16.25;;;;;;;;;;10276455;28;20494;-62
2021/08/29 08:44:47;;;;;;;17.88;16.08;;;;;;;;;;10277161;28;20052;-62
2021/08/29 08:50:05;;;;;;;20.92;16.05;;;;;;;;;;10276037;28;20092;-62
2021/08/29 08:55:23;;;;;;;16.55;14.02;;;;;;;;;;10285320;28;20053;-63
2021/08/29 09:00:48;;;;;;;16.27;14.63;;;;;;;;;;10281296;28;20106;-60
2021/08/29 09:06:06;;;;;;;17.90;14.38;;;;;;;;;;10288383;28;20084;-62
2021/08/29 09:11:06;;;;;;;16.08;14.35;;;;;;;;;;10281883;28;20080;-61
2021/08/29 09:16:11;;;;;;;17.65;16.05;;;;;;;;;;10290157;28;20068;-61
2021/08/29 09:21:18;;;;;;;19.75;17.70;;;;;;;;;;10311087;28;20506;-62
2021/08/29 09:26:19;;;;;;;20.70;18.58;;;;;;;;;;10313750;28;20055;-62
2021/08/29 09:31:42;;;;;;;22.77;20.42;;;;;;;;;;10314011;28;20083;-62
2021/08/29 09:36:40;;;;;;;36.60;30.35;;;;;;;;;;10316167;28;20114;-63
2021/08/29 09:42:01;;;;;;;23.83;21.60;;;;;;;;;;10314794;28;20048;-60
2021/08/29 09:47:21;;;;;;;19.65;17.30;;;;;;;;;;10315536;28;20052;-61
2021/08/29 09:53:00;;;;;;;14.30;13.00;;;;;;;;;;10327734;28;20080;-61
2021/08/29 09:58:23;;;;;;;11.85;10.65;;;;;;;;;;10315928;28;20055;-60
2021/08/29 10:03:37;;;;;;;9.95;8.95;;;;;;;;;;10319195;28;20048;-59
2021/08/29 10:08:40;;;;;;;9.15;8.25;;;;;;;;;;10322114;28;20049;-60
2021/08/29 10:13:50;;;;;;;7.15;6.55;;;;;;;;;;10321601;28;20056;-60
2021/08/29 10:18:50;;;;;;;5.82;5.35;;;;;;;;;;10321882;28;20045;-61
2021/08/29 10:24:29;;;;;;;5.28;4.78;;;;;;;;;;10346287;28;20094;-61
2021/08/29 10:29:31;;;;;;;5.30;4.90;;;;;;;;;;10321420;28;20413;-60
2021/08/29 10:34:32;;;;;;;6.28;5.45;;;;;;;;;;10324872;28;20461;-61
2021/08/29 10:39:32;;;;;;;5.88;4.57;;;;;;;;;;10320897;28;20045;-61
2021/08/29 10:44:58;;;;;;;5.93;5.45;;;;;;;;;;10322511;28;20095;-62
2021/08/29 10:50:17;;;;;;;5.93;5.38;;;;;;;;;;10321373;28;20080;-61
2021/08/29 10:55:18;;;;;;;5.70;5.20;;;;;;;;;;10319664;28;20052;-61
2021/08/29 11:00:26;;;;;;;5.97;5.47;;;;;;;;;;10320517;28;20048;-61
2021/08/29 11:05:51;;;;;;;6.45;5.88;;;;;;;;;;10319946;28;20295;-61
2021/08/29 11:10:54;;;;;;;6.85;6.15;;;;;;;;;;10319864;28;20528;-61
2021/08/29 11:16:14;;;;;;;8.05;7.35;;;;;;;;;;10318611;28;20076;-62
2021/08/29 11:22:02;;;;;;;7.07;6.47;;;;;;;;;;10325991;28;20053;-62
2021/08/29 11:27:38;;;;;;;7.50;6.80;;;;;;;;;;10323770;28;20521;-62
2021/08/29 11:33:14;;;;;;;7.90;7.25;;;;;;;;;;10318077;28;20484;-60
2021/08/29 11:38:31;;;;;;;7.47;6.78;;;;;;;;;;10318428;28;20516;-60
2021/08/29 11:43:37;;;;;;;7.10;5.60;;;;;;;;;;10318005;28;20060;-61
2021/08/29 11:48:38;;;;;;;6.60;5.88;;;;;;;;;;10318095;28;20520;-61
2021/08/29 11:53:44;;;;;;;6.07;5.57;;;;;;;;;;10317967;28;20497;-62
2021/08/29 11:58:44;;;;;;;8.02;6.72;;;;;;;;;;10318014;28;20048;-61
2021/08/29 12:03:44;;;;;;;7.28;6.57;;;;;;;;;;10319308;28;20049;-62
2021/08/29 12:08:53;;;;;;;5.88;5.38;;;;;;;;;;10317885;28;20048;-62
2021/08/29 12:14:12;;;;;;;6.40;5.90;;;;;;;;;;10321833;28;20084;-62
2021/08/29 12:19:33;;;;;;;5.50;5.00;;;;;;;;;;10318967;28;20053;-62
2021/08/29 12:24:59;;;;;;;6.80;6.10;;;;;;;;;;10317278;28;20478;-62
2021/08/29 12:29:58;;;;;;;6.80;6.20;;;;;;;;;;10316902;28;20036;-62
2021/08/29 12:35:01;;;;;;;7.00;6.03;;;;;;;;;;10316287;28;20110;-62
2021/08/29 12:40:02;;;;;;;9.82;7.25;;;;;;;;;;10316324;28;20045;-62
2021/08/29 12:45:05;;;;;;;8.25;7.53;;;;;;;;;;10315982;28;20052;-62
2021/08/29 12:50:07;;;;;;;7.75;7.05;;;;;;;;;;10317544;28;20071;-62
2021/08/29 12:55:10;;;;;;;7.97;7.28;;;;;;;;;;10317672;28;20083;-62
2021/08/29 13:00:09;;;;;;;8.48;7.68;;;;;;;;;;10317489;28;20049;-62
2021/08/29 13:05:10;;;;;;;8.32;7.53;;;;;;;;;;10317630;28;20091;-62
2021/08/29 13:10:08;;;;;;;7.30;6.70;;;;;;;;;;10316666;28;20418;-62
2021/08/29 13:15:07;;;;;;;7.30;6.70;;;;;;;;;;10315013;28;20076;-62
2021/08/29 13:20:06;;;;;;;8.30;7.05;;;;;;;;;;10316970;28;20044;-62
2021/08/29 13:25:22;;;;;;;7.63;6.95;;;;;;;;;;10317442;28;20056;-62
2021/08/29 13:30:21;;;;;;;7.47;6.82;;;;;;;;;;10316518;28;20044;-62
2021/08/29 13:35:20;;;;;;;7.25;6.55;;;;;;;;;;10315886;28;20045;-62
2021/08/29 13:40:19;;;;;;;8.00;7.20;;;;;;;;;;10324003;28;20075;-62
2021/08/29 13:45:22;;;;;;;7.88;6.78;;;;;;;;;;10323875;28;20048;-62
2021/08/29 13:50:20;;;;;;;8.43;7.53;;;;;;;;;;10324130;28;20087;-62
2021/08/29 13:55:19;;;;;;;8.63;7.80;;;;;;;;;;10323314;28;20082;-62
2021/08/29 14:00:18;;;;;;;8.10;7.40;;;;;;;;;;10323958;28;20564;-62
2021/08/29 14:05:18;;;;;;;7.93;7.13;;;;;;;;;;10323670;28;20075;-62
2021/08/29 14:10:16;;;;;;;9.50;8.15;;;;;;;;;;10322457;28;20048;-62
2021/08/29 14:15:14;;;;;;;9.73;8.00;;;;;;;;;;10322518;28;20083;-62
2021/08/29 14:20:14;;;;;;;8.52;7.50;;;;;;;;;;10324276;28;20505;-60
2021/08/29 14:25:14;;;;;;;9.68;8.77;;;;;;;;;;10323457;28;20071;-61
2021/08/29 14:30:12;;;;;;;19.23;14.88;;;;;;;;;;10321294;28;20465;-60
2021/08/29 14:35:11;;;;;;;12.85;10.93;;;;;;;;;;10322802;28;20509;-60
2021/08/29 14:40:12;;;;;;;31.15;23.55;;;;;;;;;;10322867;28;20040;-61
2021/08/29 14:45:11;;;;;;;35.50;23.98;;;;;;;;;;10322921;28;20429;-61
2021/08/29 14:50:11;;;;;;;8.82;8.00;;;;;;;;;;10320546;28;20063;-62
2021/08/29 14:55:14;;;;;;;8.75;7.20;;;;;;;;;;10320101;28;20111;-62
2021/08/29 15:00:13;;;;;;;8.02;7.32;;;;;;;;;;10322264;28;20048;-61
2021/08/29 15:05:12;;;;;;;7.72;7.03;;;;;;;;;;10321834;28;20083;-62
2021/08/29 15:10:10;;;;;;;8.13;7.43;;;;;;;;;;10320641;28;20493;-61
2021/08/29 15:15:11;;;;;;;8.63;7.82;;;;;;;;;;10321464;28;20134;-61
2021/08/29 15:20:10;;;;;;;10.02;9.13;;;;;;;;;;10321488;28;20063;-61
2021/08/29 15:25:08;;;;;;;8.27;7.32;;;;;;;;;;10319795;28;20037;-61
2021/08/29 15:30:07;;;;;;;8.48;7.00;;;;;;;;;;10320846;28;20044;-61
2021/08/29 15:35:08;;;;;;;9.18;7.82;;;;;;;;;;10320569;28;20076;-62
2021/08/29 15:40:08;;;;;;;9.48;7.68;;;;;;;;;;10320557;28;20048;-62
2021/08/29 15:45:08;;;;;;;7.38;6.55;;;;;;;;;;10320230;28;20048;-61
2021/08/29 15:50:11;;;;;;;8.63;7.75;;;;;;;;;;10319562;28;20052;-62
2021/08/29 15:55:10;;;;;;;9.07;8.25;;;;;;;;;;10319514;28;20084;-62
2021/08/29 16:00:09;;;;;;;8.68;7.50;;;;;;;;;;10319555;28;20045;-61
2021/08/29 16:05:09;;;;;;;8.18;7.38;;;;;;;;;;10319441;28;20080;-61
2021/08/29 16:10:10;;;;;;;8.65;7.95;;;;;;;;;;10319300;28;20131;-61
2021/08/29 16:15:09;;;;;;;9.32;8.52;;;;;;;;;;10317350;28;20099;-61
2021/08/29 16:20:08;;;;;;;9.27;8.38;;;;;;;;;;10318726;28;20059;-61
2021/08/29 16:25:07;;;;;;;9.07;8.38;;;;;;;;;;10318713;28;20418;-61
2021/08/29 16:30:08;;;;;;;10.95;10.05;;;;;;;;;;10318650;28;20413;-60
2021/08/29 16:35:08;;;;;;;8.93;8.15;;;;;;;;;;10318354;28;20099;-60
2021/08/29 16:40:07;;;;;;;9.35;8.55;;;;;;;;;;10317679;28;20048;-60
2021/08/29 16:45:08;;;;;;;9.55;8.65;;;;;;;;;;10317987;28;20549;-61
2021/08/29 16:50:07;;;;;;;9.95;9.00;;;;;;;;;;10317177;28;20086;-61
2021/08/29 16:55:05;;;;;;;9.85;8.88;;;;;;;;;;10317445;28;20079;-61
2021/08/29 17:00:05;;;;;;;10.30;9.40;;;;;;;;;;10317598;28;20040;-61
2021/08/29 17:05:05;;;;;;;10.07;9.23;;;;;;;;;;10316496;28;20044;-61
2021/08/29 17:10:04;;;;;;;9.70;8.80;;;;;;;;;;10315718;28;20075;-61
2021/08/29 17:15:03;;;;;;;10.80;9.85;;;;;;;;;;10317300;28;20076;-61
2021/08/29 17:20:01;;;;;;;10.48;9.57;;;;;;;;;;10317813;28;20422;-61
2021/08/29 17:25:01;;;;;;;11.57;10.48;;;;;;;;;;10316986;28;20083;-62
2021/08/29 17:30:00;;;;;;;10.63;9.60;;;;;;;;;;10316952;28;20075;-62
2021/08/29 17:34:59;;;;;;;11.02;9.98;;;;;;;;;;10311600;28;20064;-58
2021/08/29 17:39:58;;;;;;;10.98;9.27;;;;;;;;;;10259807;28;20139;-60
2021/08/29 17:44:57;;;;;;;11.82;10.82;;;;;;;;;;10286318;28;20064;-60
2021/08/29 17:49:56;;;;;;;11.30;10.10;;;;;;;;;;10285887;28;20048;-59
2021/08/29 17:54:54;;;;;;;10.52;9.63;;;;;;;;;;10293795;28;20099;-60
2021/08/29 17:59:53;;;;;;;11.65;10.55;;;;;;;;;;10294265;28;20552;-60
2021/08/29 18:04:54;;;;;;;16.67;11.98;;;;;;;;;;10295418;28;20396;-59
2021/08/29 18:09:57;;;;;;;14.85;13.02;;;;;;;;;;10285182;28;20069;-59
2021/08/29 18:14:55;;;;;;;14.52;13.18;;;;;;;;;;10285390;28;20076;-59
2021/08/29 18:19:56;;;;;;;14.82;13.32;;;;;;;;;;10289626;28;20073;-59
2021/08/29 18:24:55;;;;;;;13.68;12.40;;;;;;;;;;10291047;28;20128;-60
2021/08/29 18:29:53;;;;;;;13.18;11.98;;;;;;;;;;10284448;28;20076;-59
2021/08/29 18:34:51;;;;;;;13.60;12.40;;;;;;;;;;10294903;28;20489;-59
2021/08/29 18:39:51;;;;;;;14.68;13.27;;;;;;;;;;10288594;28;20512;-59
2021/08/29 18:44:49;;;;;;;14.77;13.38;;;;;;;;;;10294107;28;20076;-59
2021/08/29 18:49:48;;;;;;;14.15;12.75;;;;;;;;;;10292223;28;20087;-60
2021/08/29 18:54:46;;;;;;;14.82;13.32;;;;;;;;;;10295323;28;20525;-58
2021/08/29 18:59:46;;;;;;;15.23;13.65;;;;;;;;;;10300471;28;20692;-59
2021/08/29 19:04:44;;;;;;;23.60;21.00;;;;;;;;;;10302811;28;20049;-60
2021/08/29 19:09:43;;;;;;;15.35;13.95;;;;;;;;;;10313496;28;20072;-60
2021/08/29 19:14:41;;;;;;;15.68;14.10;;;;;;;;;;10306462;28;20076;-59
2021/08/29 19:19:41;;;;;;;15.10;13.50;;;;;;;;;;10296186;28;20498;-61
2021/08/29 19:24:39;;;;;;;15.32;13.70;;;;;;;;;;10308958;28;20039;-60
2021/08/29 19:29:38;;;;;;;14.00;12.75;;;;;;;;;;10295844;28;20072;-60
2021/08/29 19:34:36;;;;;;;14.75;13.35;;;;;;;;;;10290970;28;20490;-59
2021/08/29 19:39:36;;;;;;;15.55;14.02;;;;;;;;;;10296605;28;20525;-59
2021/08/29 19:44:34;;;;;;;14.50;12.95;;;;;;;;;;10295591;28;20072;-60
2021/08/29 19:49:32;;;;;;;16.30;13.40;;;;;;;;;;10291442;28;20080;-60
2021/08/29 19:54:31;;;;;;;16.95;15.10;;;;;;;;;;10302239;28;20072;-59
2021/08/29 19:59:31;;;;;;;16.23;13.90;;;;;;;;;;10290716;28;20079;-60
2021/08/29 20:04:29;;;;;;;15.57;13.85;;;;;;;;;;10288718;28;20076;-60
2021/08/29 20:09:27;;;;;;;14.95;13.45;;;;;;;;;;10278534;28;20414;-58
2021/08/29 20:14:26;;;;;;;15.65;13.32;;;;;;;;;;10287830;28;20044;-59
2021/08/29 20:19:25;;;;;;;16.05;14.50;;;;;;;;;;10278046;28;20498;-59
2021/08/29 20:24:24;;;;;;;14.88;12.85;;;;;;;;;;10284027;28;20056;-60
2021/08/29 20:29:22;;;;;;;15.32;13.63;;;;;;;;;;10308531;28;20600;-59
2021/08/29 20:34:20;;;;;;;14.50;13.00;;;;;;;;;;10309340;28;20520;-60
2021/08/29 20:39:20;;;;;;;17.60;13.45;;;;;;;;;;10292953;28;20072;-60
2021/08/29 20:44:18;;;;;;;15.77;13.68;;;;;;;;;;10286971;28;20065;-59
2021/08/29 20:49:17;;;;;;;16.15;13.38;;;;;;;;;;10274877;28;20083;-59
2021/08/29 20:54:15;;;;;;;13.82;12.43;;;;;;;;;;10309039;28;20044;-59
2021/08/29 20:59:14;;;;;;;13.35;12.02;;;;;;;;;;10314021;28;20064;-59
2021/08/29 21:04:13;;;;;;;17.33;11.68;;;;;;;;;;10276652;28;20041;-60
2021/08/29 21:09:11;;;;;;;12.35;9.75;;;;;;;;;;10276795;28;20045;-58
2021/08/29 21:14:09;;;;;;;10.82;7.85;;;;;;;;;;10272669;28;20072;-60
2021/08/29 21:19:09;;;;;;;11.38;9.15;;;;;;;;;;10295273;28;20083;-60
2021/08/29 21:24:07;;;;;;;9.60;8.60;;;;;;;;;;10276716;28;20041;-60
2021/08/29 21:29:06;;;;;;;10.70;7.57;;;;;;;;;;10275962;28;20502;-60
2021/08/29 21:34:04;;;;;;;8.75;6.70;;;;;;;;;;10276021;28;20084;-61
2021/08/29 21:39:04;;;;;;;9.50;7.32;;;;;;;;;;10275628;28;20080;-59
2021/08/29 21:44:05;;;;;;;8.15;7.07;;;;;;;;;;10273037;28;20073;-61
2021/08/29 21:49:04;;;;;;;10.32;7.05;;;;;;;;;;10275520;28;20107;-61
2021/08/29 21:54:04;;;;;;;8.80;7.95;;;;;;;;;;10274028;28;20049;-61
2021/08/29 21:59:02;;;;;;;8.48;7.72;;;;;;;;;;10279874;28;20069;-60
2021/08/29 22:04:01;;;;;;;8.63;7.45;;;;;;;;;;10283367;28;20505;-60
2021/08/29 22:09:00;;;;;;;10.45;6.95;;;;;;;;;;10282871;28;20080;-60
2021/08/29 22:13:59;;;;;;;8.70;7.90;;;;;;;;;;10283044;28;20085;-60
2021/08/29 22:18:58;;;;;;;9.30;7.82;;;;;;;;;;10282551;28;20077;-60
2021/08/29 22:23:56;;;;;;;8.13;7.43;;;;;;;;;;10281996;28;20071;-59
2021/08/29 22:28:55;;;;;;;10.65;7.95;;;;;;;;;;10280621;28;20045;-59
2021/08/29 22:33:56;;;;;;;7.85;7.15;;;;;;;;;;10280650;28;20513;-60
2021/08/29 22:38:54;;;;;;;8.02;7.22;;;;;;;;;;10282029;28;20093;-61
2021/08/29 22:43:52;;;;;;;9.10;7.63;;;;;;;;;;10280818;28;20040;-60
2021/08/29 22:48:50;;;;;;;9.02;8.13;;;;;;;;;;10281167;28;20517;-59
2021/08/29 22:53:50;;;;;;;8.98;7.60;;;;;;;;;;10281220;28;20073;-59
2021/08/29 22:58:49;;;;;;;12.23;7.90;;;;;;;;;;10281285;28;20080;-59
2021/08/29 23:03:47;;;;;;;9.18;8.18;;;;;;;;;;10281156;28;20521;-60
2021/08/29 23:08:45;;;;;;;9.75;8.35;;;;;;;;;;10279576;28;20072;-59
2021/08/29 23:13:45;;;;;;;11.75;9.80;;;;;;;;;;10280654;28;20453;-59
2021/08/29 23:18:43;;;;;;;10.82;9.43;;;;;;;;;;10280327;28;20077;-59
2021/08/29 23:23:42;;;;;;;10.45;9.20;;;;;;;;;;10280405;28;20494;-60
2021/08/29 23:28:40;;;;;;;16.67;10.27;;;;;;;;;;10279949;28;20077;-60
2021/08/29 23:33:40;;;;;;;12.63;11.13;;;;;;;;;;10279816;28;20045;-60
2021/08/29 23:38:38;;;;;;;12.85;11.65;;;;;;;;;;10280007;28;20076;-60
2021/08/29 23:43:36;;;;;;;13.07;11.60;;;;;;;;;;10279667;28;20073;-60
2021/08/29 23:48:35;;;;;;;13.85;11.13;;;;;;;;;;10278184;28;20048;-60
2021/08/29 23:53:34;;;;;;;14.25;11.43;;;;;;;;;;10278885;28;20057;-60
2021/08/29 23:58:33;;;;;;;13.05;11.75;;;;;;;;;;10278811;28;20078;-60
